Terminal Aerodrome Forecast
Issued by NWS

Home | Current Version | Previous Version | Text Only | Print | Product List | Glossary On
Versions: 1 2 3 4 5 6 7 8 9 10 11 12 13 14 15 16
000
FTUS42 TJSJ 140500
TAFJPS
TAF
TJPS 140537Z 1406/1506 05005KT P6SM VCSH FEW028 SCT040
     FM141500 13012KT P6SM SCT030 SCT060
     FM142300 09008KT P6SM FEW025 SCT080=

USA.gov is the U.S. government's official web portal to all federal, state and local government web resources and services.